createdAt,value
2018-09-26T00:00:36.680Z,11.5
2018-09-26T00:05:32.358Z,11.5
2018-09-26T00:10:27.758Z,11.4
2018-09-26T00:15:23.642Z,10.6
2018-09-26T00:20:19.336Z,10.6
2018-09-26T00:25:15.496Z,11.3
2018-09-26T00:30:11.461Z,9.8
2018-09-26T00:35:07.327Z,10.3
2018-09-26T00:40:03.045Z,11.1
2018-09-26T00:44:58.779Z,10.4
2018-09-26T00:49:55.322Z,11.1
2018-09-26T00:54:51.453Z,10.3
2018-09-26T00:59:47.932Z,11.1
2018-09-26T01:04:43.603Z,10.2
2018-09-26T01:09:39.911Z,10.2
2018-09-26T01:14:35.526Z,9.7
2018-09-26T01:19:30.888Z,9.8
2018-09-26T01:24:26.766Z,9.9
2018-09-26T01:29:23.457Z,10.5
2018-09-26T01:34:19.136Z,10.4
2018-09-26T01:39:14.771Z,9.4
2018-09-26T01:44:10.595Z,10.2
2018-09-26T01:49:06.384Z,10.2
2018-09-26T01:54:02.087Z,9.4
2018-09-26T01:58:58.634Z,9.2
2018-09-26T02:03:54.461Z,9.2
2018-09-26T02:08:50.674Z,9.1
2018-09-26T02:13:46.703Z,9.1
2018-09-26T02:18:42.262Z,9.1
2018-09-26T02:23:38.547Z,9
2018-09-26T02:28:34.654Z,9
2018-09-26T02:33:30.351Z,9.9
2018-09-26T02:38:25.749Z,9.1
2018-09-26T02:43:21.741Z,9.9
2018-09-26T02:48:16.023Z,9
2018-09-26T02:53:11.868Z,8.9
2018-09-26T02:58:08.342Z,8.9
2018-09-26T03:03:04.116Z,8.9
2018-09-26T03:08:00.357Z,9
2018-09-26T03:12:56.007Z,8.1
2018-09-26T03:17:51.758Z,8.9
2018-09-26T03:22:47.413Z,9
2018-09-26T03:27:43.422Z,8.9
2018-09-26T03:32:39.078Z,8.9
2018-09-26T03:37:34.984Z,9
2018-09-26T03:42:30.956Z,9.8
2018-09-26T03:47:26.506Z,9
2018-09-26T03:52:22.090Z,9
2018-09-26T03:57:17.926Z,9
2018-09-26T04:02:13.725Z,9
2018-09-26T04:07:09.588Z,9
2018-09-26T04:12:05.239Z,9
2018-09-26T04:17:00.998Z,8.9
2018-09-26T04:21:56.704Z,8.9
2018-09-26T04:26:52.468Z,8.9
2018-09-26T04:31:48.016Z,8.9
2018-09-26T04:36:43.894Z,8.9
2018-09-26T04:41:39.624Z,8.9
2018-09-26T04:46:35.483Z,8.9
2018-09-26T04:51:31.170Z,8.9
2018-09-26T04:56:27.317Z,8.9
2018-09-26T05:01:23.056Z,8.9
2018-09-26T05:06:18.905Z,8.8
2018-09-26T05:11:14.409Z,8.8
2018-09-26T05:16:10.128Z,8.8
2018-09-26T05:21:05.847Z,8.8
2018-09-26T05:26:01.884Z,8.9
2018-09-26T05:30:57.250Z,8.8
2018-09-26T05:35:53.108Z,9.3
2018-09-26T05:40:48.928Z,8.9
2018-09-26T05:45:44.797Z,8.5
2018-09-26T05:50:40.565Z,9.6
2018-09-26T05:55:36.569Z,8.6
2018-09-26T06:00:32.715Z,9
2018-09-26T06:05:28.903Z,9.9
2018-09-26T06:10:24.705Z,9.1
2018-09-26T06:15:20.094Z,9
2018-09-26T06:20:15.917Z,9.1
2018-09-26T06:25:11.639Z,9.2
2018-09-26T06:30:07.502Z,9.3
2018-09-26T06:35:02.917Z,10.2
2018-09-26T06:39:58.466Z,9.2
2018-09-26T06:44:54.294Z,9.5
2018-09-26T06:49:50.233Z,9.6
2018-09-26T06:54:46.472Z,9.7
2018-09-26T06:59:42.488Z,9.8
2018-09-26T07:04:38.840Z,9.9
2018-09-26T07:09:34.189Z,10
2018-09-26T07:14:30.106Z,10
2018-09-26T07:19:26.145Z,10
2018-09-26T07:24:21.966Z,10.9
2018-09-26T07:29:17.884Z,11
2018-09-26T07:34:13.919Z,11.1
2018-09-26T07:39:09.757Z,10.4
2018-09-26T07:44:05.217Z,11.3
2018-09-26T07:49:00.874Z,10.6
2018-09-26T07:53:57.135Z,10.7
2018-09-26T07:58:53.234Z,10.8
2018-09-26T08:03:48.762Z,10.9
2018-09-26T08:08:44.714Z,11.8
2018-09-26T08:13:40.698Z,11
2018-09-26T08:18:36.767Z,11.9
2018-09-26T08:23:32.961Z,11.2
2018-09-26T08:28:28.736Z,11.3
2018-09-26T08:33:24.798Z,12.1
2018-09-26T08:38:20.468Z,12.2
2018-09-26T08:43:16.302Z,12.3
2018-09-26T08:48:12.005Z,12.5
2018-09-26T08:53:08.327Z,12.6
2018-09-26T08:58:04.420Z,12.7
2018-09-26T09:03:00.769Z,12.8
2018-09-26T09:07:56.578Z,12.9
2018-09-26T09:12:51.291Z,12.9
2018-09-26T09:17:47.203Z,12.2
2018-09-26T09:22:42.721Z,12.9
2018-09-26T09:27:38.688Z,12.1
2018-09-26T09:32:34.250Z,13
2018-09-26T09:37:30.346Z,13.1
2018-09-26T09:42:26.392Z,13.3
2018-09-26T09:47:22.441Z,13.4
2018-09-26T09:52:18.490Z,13.4
2018-09-26T09:57:14.835Z,13.6
2018-09-26T10:02:12.159Z,14.5
2018-09-26T10:07:08.025Z,14.7
2018-09-26T10:12:04.102Z,14.9
2018-09-26T10:17:00.255Z,14.4
2018-09-26T10:21:56.332Z,15
2018-09-26T10:26:52.421Z,14.9
2018-09-26T10:31:48.679Z,14.9
2018-09-26T10:36:44.623Z,14
2018-09-26T10:41:40.584Z,14.9
2018-09-26T10:46:36.930Z,14.2
2018-09-26T10:51:33.366Z,15.1
2018-09-26T10:56:29.085Z,15.3
2018-09-26T11:01:25.309Z,15.2
2018-09-26T11:06:21.008Z,15.1
2018-09-26T11:11:16.764Z,15
2018-09-26T11:16:12.630Z,14.9
2018-09-26T11:21:08.564Z,15
2018-09-26T11:26:05.510Z,15.4
2018-09-26T11:31:01.949Z,15.7
2018-09-26T11:35:58.247Z,15.7
2018-09-26T11:40:54.725Z,15.9
2018-09-26T11:45:50.998Z,16.3
2018-09-26T11:50:47.057Z,16.5
2018-09-26T11:55:43.006Z,15.9
2018-09-26T12:00:39.264Z,15.7
2018-09-26T12:05:35.419Z,16.8
2018-09-26T12:10:31.259Z,17
2018-09-26T12:15:27.474Z,16.8
2018-09-26T12:20:22.874Z,16
2018-09-26T12:25:19.042Z,15.9
2018-09-26T12:30:14.750Z,16.3
2018-09-26T12:35:08.632Z,16.2
2018-09-26T12:40:04.992Z,15.6
2018-09-26T12:45:00.323Z,16.4
2018-09-26T12:49:56.559Z,16.4
2018-09-26T12:54:52.043Z,16
2018-09-26T12:59:48.209Z,14.9
2018-09-26T13:04:44.008Z,15.9
2018-09-26T13:09:40.029Z,16.1
2018-09-26T13:14:36.445Z,16
2018-09-26T13:19:32.618Z,15.8
2018-09-26T13:24:28.632Z,15.2
2018-09-26T13:29:25.109Z,15.4
2018-09-26T13:34:21.125Z,15.6
2018-09-26T13:39:17.226Z,14.9
2018-09-26T13:44:12.638Z,14.6
2018-09-26T13:49:08.879Z,14.5
2018-09-26T13:54:04.652Z,14.4
2018-09-26T13:59:00.206Z,15.1
2018-09-26T14:03:56.401Z,15.1
2018-09-26T14:08:52.267Z,15.1
2018-09-26T14:13:48.161Z,15
2018-09-26T14:18:43.935Z,14.9
2018-09-26T14:23:40.145Z,14.8
2018-09-26T14:28:34.867Z,14.8
2018-09-26T14:33:30.573Z,14.7
2018-09-26T14:38:26.143Z,14.7
2018-09-26T14:43:21.935Z,14.6
2018-09-26T14:48:18.065Z,13.8
2018-09-26T14:53:14.352Z,14.5
2018-09-26T14:58:10.595Z,14.5
2018-09-26T15:03:06.534Z,14.4
2018-09-26T15:08:02.614Z,13.6
2018-09-26T15:12:58.359Z,14.2
2018-09-26T15:17:53.947Z,14.2
2018-09-26T15:22:49.789Z,14.1
2018-09-26T15:27:45.950Z,13.2
2018-09-26T15:32:41.521Z,14
2018-09-26T15:37:37.633Z,11.4
2018-09-26T15:42:33.306Z,13.1
2018-09-26T15:47:29.069Z,13.8
2018-09-26T15:52:24.820Z,13
2018-09-26T15:57:20.311Z,13.7
2018-09-26T16:02:16.038Z,13.6
2018-09-26T16:07:12.384Z,8.7
2018-09-26T16:12:08.138Z,12.7
2018-09-26T16:17:03.971Z,13.5
2018-09-26T16:21:59.829Z,13.4
2018-09-26T16:26:55.541Z,13.4
2018-09-26T16:31:51.817Z,13.3
2018-09-26T16:36:48.554Z,12.5
2018-09-26T16:41:44.406Z,13.3
2018-09-26T16:46:40.233Z,13.2
2018-09-26T16:51:36.368Z,13.2
2018-09-26T16:56:32.750Z,12.8
2018-09-26T17:01:28.205Z,13
2018-09-26T17:06:24.698Z,13
2018-09-26T17:11:20.469Z,13
2018-09-26T17:16:16.633Z,13
2018-09-26T17:21:12.415Z,12.9
2018-09-26T17:26:08.254Z,12.5
2018-09-26T17:31:03.886Z,12.7
2018-09-26T17:35:59.780Z,12.6
2018-09-26T17:40:55.459Z,11.9
2018-09-26T17:45:51.622Z,12.6
2018-09-26T17:50:47.453Z,11.7
2018-09-26T17:55:43.769Z,11.7
2018-09-26T18:00:39.470Z,12.4
2018-09-26T18:05:35.432Z,11.6
2018-09-26T18:10:31.455Z,12.1
2018-09-26T18:15:27.478Z,12.2
2018-09-26T18:20:23.352Z,11.4
2018-09-26T18:25:19.266Z,11.3
2018-09-26T18:30:15.069Z,12.1
2018-09-26T18:35:10.826Z,11.3
2018-09-26T18:40:06.745Z,12
2018-09-26T18:45:02.522Z,11.3
2018-09-26T18:49:58.604Z,11.3
2018-09-26T18:54:54.622Z,10.9
2018-09-26T18:59:50.602Z,12
2018-09-26T19:04:46.776Z,12
2018-09-26T19:09:42.582Z,11.1
2018-09-26T19:14:38.554Z,11.9
2018-09-26T19:19:37.995Z,11
2018-09-26T19:24:36.038Z,11.1
2018-09-26T19:29:31.689Z,10.7
2018-09-26T19:34:27.556Z,11.8
2018-09-26T19:39:23.680Z,11
2018-09-26T19:44:19.405Z,11
2018-09-26T19:49:15.288Z,10.9
2018-09-26T19:54:11.471Z,10.6
2018-09-26T19:59:07.457Z,11.6
2018-09-26T20:04:03.640Z,10.8
2018-09-26T20:08:59.512Z,11.3
2018-09-26T20:13:55.204Z,10.8
2018-09-26T20:18:51.000Z,10.7
2018-09-26T20:23:47.061Z,10.6
2018-09-26T20:28:42.930Z,10.5
2018-09-26T20:33:38.721Z,10.5
2018-09-26T20:38:34.604Z,10.4
2018-09-26T20:43:30.470Z,10.4
2018-09-26T20:48:26.060Z,10.3
2018-09-26T20:53:22.107Z,10.3
2018-09-26T20:58:18.156Z,10.3
2018-09-26T21:03:14.167Z,10.2
2018-09-26T21:08:09.767Z,10.9
2018-09-26T21:13:06.003Z,9.7
2018-09-26T21:18:01.178Z,10
2018-09-26T21:22:57.148Z,9.9
2018-09-26T21:27:53.122Z,9.9
2018-09-26T21:32:49.038Z,9.9
2018-09-26T21:37:44.822Z,9.8
2018-09-26T21:42:40.464Z,9.7
2018-09-26T21:47:36.350Z,9.6
2018-09-26T21:52:32.678Z,10.4
2018-09-26T21:57:28.707Z,9.2
2018-09-26T22:02:24.884Z,9.3
2018-09-26T22:07:20.604Z,9.3
2018-09-26T22:12:16.536Z,9.2
2018-09-26T22:17:12.351Z,9.1
2018-09-26T22:22:08.313Z,9.1
2018-09-26T22:27:04.095Z,9.1
2018-09-26T22:32:00.280Z,9.1
2018-09-26T22:36:56.118Z,9.1
2018-09-26T22:41:51.987Z,9.1
2018-09-26T22:46:48.061Z,9
2018-09-26T22:51:44.092Z,9.6
2018-09-26T22:56:39.878Z,9.8
2018-09-26T23:01:36.139Z,9
2018-09-26T23:06:31.390Z,9.8
2018-09-26T23:11:27.048Z,8.9
2018-09-26T23:16:22.870Z,8.9
2018-09-26T23:21:18.593Z,8.6
2018-09-26T23:26:14.731Z,9.6
2018-09-26T23:31:10.615Z,8.7
2018-09-26T23:36:06.516Z,8.6
2018-09-26T23:41:02.338Z,8.6
2018-09-26T23:45:58.192Z,8
2018-09-26T23:50:54.031Z,6.8
2018-09-26T23:55:50.298Z,8.6
